Jersey, AR

11:17 AM CST on February 14, 2016 (GMT -0600)
South Arkansas Regional At Goodwin | | Change Station
CLOSE
Current Station
Airport
Location: El Dorado,
Elevation: 276 ft
Nearby Weather Stations

Elev 276 ft 33.22 °N, 92.81 °W | Updated 24 minutes ago

Overcast
Overcast
54 °F
Feels Like 54 °F
N
6
Wind Variable Wind from Variable

Today
High -- | Low -- °F
--% Chance of Precip.
Yesterday
High -- | Low -- °F
Precip. -- in
Pressure 30.11 in
Visibility 10.0 miles
Clouds Overcast 1900 ft
Dew Point 41 °F
Humidity 62%
Rainfall 0.00 in
Snow Depth Not available.
6:54 AM 5:52 PM
Waxing Crescent, 43% visible
METAR KELD 141653Z AUTO VRB05KT 10SM OVC019 12/05 A3011 RMK AO2 SLP196 T01220050
Pressure 30.11 in
Visibility 10.0 miles
Clouds Overcast 1900 ft
Dew Point 41 °F
Humidity 62%
Rainfall 0.00 in
Snow Depth Not available.
6:54 AM 5:52 PM
Waxing Crescent, 43% visible
METAR KELD 141653Z AUTO VRB05KT 10SM OVC019 12/05 A3011 RMK AO2 SLP196 T01220050

10-Day Weather Forecast

Almanac

Astronomy

Feb. 14, 2016 Rise Set
Actual Time
Civil Twilight
Nautical Twilight
Astronomical Twilight
Moon
Length of Visible Light
Length of Day
Tomorrow will be .
, % of the Moon is Illuminated

Today's Extremes

State Highs State Lows

Community

WunderPhotos

Upload Photos

1,892,853 photos uploaded!

WunderBlog® & News

Nearby

Air Quality

  Air Quality AQ Index Pollutant
Not available.

Snow Depth

Station Depth Elevation

Earthquake Activity

City Distance Mag. Time & Date
Minimum magnitude displayed is 2.5.

Coastal Water Temperatures

Place Temperature

Stations

Nearby Weather Stations

Station Location Temp. Windchill Dew Point Humidity Wind Precip. Elev Updated Type
                   

Watches & Warnings

There are currently no watches in effect.